sensor_id;sensor_type;location;lat;lon;timestamp;temperature;humidity
9939;DHT22;5008;50.656;7.188;2022-11-25T05:02:00;8.50;99.90
9939;DHT22;5008;50.656;7.188;2022-11-25T05:04:27;8.60;99.90
9939;DHT22;5008;50.656;7.188;2022-11-25T05:06:54;8.50;99.90
9939;DHT22;5008;50.656;7.188;2022-11-25T05:09:20;8.60;99.90
9939;DHT22;5008;50.656;7.188;2022-11-25T05:11:47;8.70;99.90
9939;DHT22;5008;50.656;7.188;2022-11-25T05:29:12;8.80;99.90
9939;DHT22;5008;50.656;7.188;2022-11-25T05:31:39;8.80;99.90
9939;DHT22;5008;50.656;7.188;2022-11-25T05:34:06;8.80;99.90
9939;DHT22;5008;50.656;7.188;2022-11-25T05:36:33;8.80;99.90
9939;DHT22;5008;50.656;7.188;2022-11-25T05:39:00;8.80;99.90
9939;DHT22;5008;50.656;7.188;2022-11-25T05:41:27;8.80;99.90
9939;DHT22;5008;50.656;7.188;2022-11-25T05:43:54;8.80;99.90
9939;DHT22;5008;50.656;7.188;2022-11-25T05:46:22;8.90;99.90
9939;DHT22;5008;50.656;7.188;2022-11-25T05:48:52;8.90;99.90
9939;DHT22;5008;50.656;7.188;2022-11-25T05:51:19;9.00;99.90
9939;DHT22;5008;50.656;7.188;2022-11-25T05:53:46;9.00;99.90
9939;DHT22;5008;50.656;7.188;2022-11-25T05:56:13;9.00;99.90
9939;DHT22;5008;50.656;7.188;2022-11-25T05:58:40;9.00;99.90
9939;DHT22;5008;50.656;7.188;2022-11-25T06:01:07;9.00;99.90
9939;DHT22;5008;50.656;7.188;2022-11-25T06:03:37;8.90;99.90
9939;DHT22;5008;50.656;7.188;2022-11-25T06:06:05;8.90;99.90
9939;DHT22;5008;50.656;7.188;2022-11-25T06:08:33;9.00;99.90
9939;DHT22;5008;50.656;7.188;2022-11-25T06:11:04;9.00;99.90
9939;DHT22;5008;50.656;7.188;2022-11-25T06:13:31;8.90;99.90
9939;DHT22;5008;50.656;7.188;2022-11-25T06:15:57;8.90;99.90
9939;DHT22;5008;50.656;7.188;2022-11-25T06:18:24;8.80;99.90
9939;DHT22;5008;50.656;7.188;2022-11-25T06:20:57;8.90;99.90
9939;DHT22;5008;50.656;7.188;2022-11-25T06:23:24;8.80;99.90
9939;DHT22;5008;50.656;7.188;2022-11-25T06:25:51;8.80;99.90
9939;DHT22;5008;50.656;7.188;2022-11-25T06:28:18;8.80;99.90
9939;DHT22;5008;50.656;7.188;2022-11-25T06:30:45;8.70;99.90
9939;DHT22;5008;50.656;7.188;2022-11-25T06:33:12;8.70;99.90
9939;DHT22;5008;50.656;7.188;2022-11-25T06:35:39;8.60;99.90
9939;DHT22;5008;50.656;7.188;2022-11-25T06:38:07;8.60;99.90
9939;DHT22;5008;50.656;7.188;2022-11-25T06:40:34;8.50;99.90
9939;DHT22;5008;50.656;7.188;2022-11-25T06:43:02;8.60;99.90
9939;DHT22;5008;50.656;7.188;2022-11-25T06:45:30;8.50;99.90
9939;DHT22;5008;50.656;7.188;2022-11-25T06:47:57;8.50;99.90
9939;DHT22;5008;50.656;7.188;2022-11-25T06:50:24;8.50;99.90
9939;DHT22;5008;50.656;7.188;2022-11-25T06:52:51;8.50;99.90
9939;DHT22;5008;50.656;7.188;2022-11-25T06:55:32;8.50;99.90
9939;DHT22;5008;50.656;7.188;2022-11-25T06:57:59;8.50;99.90
9939;DHT22;5008;50.656;7.188;2022-11-25T07:00:26;8.50;99.90
9939;DHT22;5008;50.656;7.188;2022-11-25T07:02:55;8.50;99.90
9939;DHT22;5008;50.656;7.188;2022-11-25T07:05:24;8.50;99.90
9939;DHT22;5008;50.656;7.188;2022-11-25T07:07:51;8.40;99.90
9939;DHT22;5008;50.656;7.188;2022-11-25T07:10:18;8.40;99.90
9939;DHT22;5008;50.656;7.188;2022-11-25T07:12:49;8.40;99.90
9939;DHT22;5008;50.656;7.188;2022-11-25T07:15:16;8.40;99.90
9939;DHT22;5008;50.656;7.188;2022-11-25T07:17:43;8.30;99.90
9939;DHT22;5008;50.656;7.188;2022-11-25T07:20:11;8.30;99.90
9939;DHT22;5008;50.656;7.188;2022-11-25T07:22:40;8.30;99.90
9939;DHT22;5008;50.656;7.188;2022-11-25T07:25:07;8.30;99.90
9939;DHT22;5008;50.656;7.188;2022-11-25T07:27:34;8.30;99.90
9939;DHT22;5008;50.656;7.188;2022-11-25T07:30:03;8.30;99.90
9939;DHT22;5008;50.656;7.188;2022-11-25T07:32:32;8.30;99.90
9939;DHT22;5008;50.656;7.188;2022-11-25T07:34:59;8.30;99.90
9939;DHT22;5008;50.656;7.188;2022-11-25T07:37:38;8.30;99.90
9939;DHT22;5008;50.656;7.188;2022-11-25T07:40:21;8.30;99.90
9939;DHT22;5008;50.656;7.188;2022-11-25T07:43:04;8.30;99.90
9939;DHT22;5008;50.656;7.188;2022-11-25T07:46:06;8.30;99.90
9939;DHT22;5008;50.656;7.188;2022-11-25T07:48:51;8.30;99.90
9939;DHT22;5008;50.656;7.188;2022-11-25T07:51:25;8.20;99.90
9939;DHT22;5008;50.656;7.188;2022-11-25T07:53:57;8.20;99.90
9939;DHT22;5008;50.656;7.188;2022-11-25T07:56:25;8.10;99.90
9939;DHT22;5008;50.656;7.188;2022-11-25T07:58:53;8.10;99.90
9939;DHT22;5008;50.656;7.188;2022-11-25T08:01:21;8.00;99.90
9939;DHT22;5008;50.656;7.188;2022-11-25T08:03:49;8.10;99.90
9939;DHT22;5008;50.656;7.188;2022-11-25T08:06:23;8.00;99.90
9939;DHT22;5008;50.656;7.188;2022-11-25T08:08:52;7.90;99.90
9939;DHT22;5008;50.656;7.188;2022-11-25T08:11:21;7.90;99.90
9939;DHT22;5008;50.656;7.188;2022-11-25T08:13:49;7.90;99.90
9939;DHT22;5008;50.656;7.188;2022-11-25T08:16:18;7.90;99.90
9939;DHT22;5008;50.656;7.188;2022-11-25T08:18:47;7.90;99.90
9939;DHT22;5008;50.656;7.188;2022-11-25T08:21:17;7.90;99.90
9939;DHT22;5008;50.656;7.188;2022-11-25T08:23:45;7.90;99.90
9939;DHT22;5008;50.656;7.188;2022-11-25T08:26:16;7.90;99.90
9939;DHT22;5008;50.656;7.188;2022-11-25T08:28:43;8.00;99.90
9939;DHT22;5008;50.656;7.188;2022-11-25T08:31:14;8.10;99.90
9939;DHT22;5008;50.656;7.188;2022-11-25T08:33:41;8.20;99.90
9939;DHT22;5008;50.656;7.188;2022-11-25T08:36:10;8.30;99.90
9939;DHT22;5008;50.656;7.188;2022-11-25T08:38:38;8.40;99.90
9939;DHT22;5008;50.656;7.188;2022-11-25T08:41:09;8.50;99.90
9939;DHT22;5008;50.656;7.188;2022-11-25T08:43:37;8.60;99.90
9939;DHT22;5008;50.656;7.188;2022-11-25T08:46:09;8.60;99.90
9939;DHT22;5008;50.656;7.188;2022-11-25T08:48:36;8.60;99.90
9939;DHT22;5008;50.656;7.188;2022-11-25T08:51:07;8.70;99.90
9939;DHT22;5008;50.656;7.188;2022-11-25T08:53:37;8.70;99.90
9939;DHT22;5008;50.656;7.188;2022-11-25T08:56:04;8.60;99.90
9939;DHT22;5008;50.656;7.188;2022-11-25T08:58:31;8.60;99.90
9939;DHT22;5008;50.656;7.188;2022-11-25T09:00:58;8.60;99.90
9939;DHT22;5008;50.656;7.188;2022-11-25T09:03:26;8.60;99.90
9939;DHT22;5008;50.656;7.188;2022-11-25T09:05:53;8.70;99.90
9939;DHT22;5008;50.656;7.188;2022-11-25T09:08:20;8.70;99.90
9939;DHT22;5008;50.656;7.188;2022-11-25T09:10:50;8.70;99.90
9939;DHT22;5008;50.656;7.188;2022-11-25T09:13:17;8.80;99.90
9939;DHT22;5008;50.656;7.188;2022-11-25T09:15:43;8.80;99.90
9939;DHT22;5008;50.656;7.188;2022-11-25T09:18:10;8.90;99.90
9939;DHT22;5008;50.656;7.188;2022-11-25T09:20:38;8.90;99.90
9939;DHT22;5008;50.656;7.188;2022-11-25T09:23:06;8.80;99.90
9939;DHT22;5008;50.656;7.188;2022-11-25T09:25:34;8.90;99.90
9939;DHT22;5008;50.656;7.188;2022-11-25T09:28:02;8.90;99.90
9939;DHT22;5008;50.656;7.188;2022-11-25T09:30:30;8.90;99.90
9939;DHT22;5008;50.656;7.188;2022-11-25T09:32:56;8.90;99.90
9939;DHT22;5008;50.656;7.188;2022-11-25T09:35:24;8.90;99.90
9939;DHT22;5008;50.656;7.188;2022-11-25T09:37:51;8.90;99.90
9939;DHT22;5008;50.656;7.188;2022-11-25T09:40:24;8.90;99.90
9939;DHT22;5008;50.656;7.188;2022-11-25T09:42:57;9.00;99.90
9939;DHT22;5008;50.656;7.188;2022-11-25T09:45:49;9.10;99.90
9939;DHT22;5008;50.656;7.188;2022-11-25T09:48:51;9.10;99.90
9939;DHT22;5008;50.656;7.188;2022-11-25T09:51:22;9.20;99.90
9939;DHT22;5008;50.656;7.188;2022-11-25T09:53:52;9.30;99.90
9939;DHT22;5008;50.656;7.188;2022-11-25T09:56:28;9.40;99.90
9939;DHT22;5008;50.656;7.188;2022-11-25T09:59:01;9.40;99.90
9939;DHT22;5008;50.656;7.188;2022-11-25T10:01:39;9.40;99.90
9939;DHT22;5008;50.656;7.188;2022-11-25T10:04:12;9.40;99.90
9939;DHT22;5008;50.656;7.188;2022-11-25T10:06:44;9.50;99.90
9939;DHT22;5008;50.656;7.188;2022-11-25T10:09:16;9.50;99.90
9939;DHT22;5008;50.656;7.188;2022-11-25T10:11:49;9.60;99.90
9939;DHT22;5008;50.656;7.188;2022-11-25T10:14:24;9.60;99.90
9939;DHT22;5008;50.656;7.188;2022-11-25T10:16:57;9.70;99.90
9939;DHT22;5008;50.656;7.188;2022-11-25T10:19:38;9.80;99.90
9939;DHT22;5008;50.656;7.188;2022-11-25T10:22:19;9.90;99.90
9939;DHT22;5008;50.656;7.188;2022-11-25T10:24:47;10.00;99.90
9939;DHT22;5008;50.656;7.188;2022-11-25T10:27:18;10.10;99.90
9939;DHT22;5008;50.656;7.188;2022-11-25T10:29:54;10.20;99.90
9939;DHT22;5008;50.656;7.188;2022-11-25T10:32:27;10.30;99.90
9939;DHT22;5008;50.656;7.188;2022-11-25T10:34:58;10.30;99.90
9939;DHT22;5008;50.656;7.188;2022-11-25T10:37:28;10.30;99.90
9939;DHT22;5008;50.656;7.188;2022-11-25T10:39:56;10.40;99.90
9939;DHT22;5008;50.656;7.188;2022-11-25T10:42:24;10.30;99.90
9939;DHT22;5008;50.656;7.188;2022-11-25T10:44:52;10.30;99.90
9939;DHT22;5008;50.656;7.188;2022-11-25T10:47:31;10.30;99.90
9939;DHT22;5008;50.656;7.188;2022-11-25T10:50:06;10.20;99.90
9939;DHT22;5008;50.656;7.188;2022-11-25T10:52:40;10.20;99.90
9939;DHT22;5008;50.656;7.188;2022-11-25T10:55:13;10.20;99.90
9939;DHT22;5008;50.656;7.188;2022-11-25T10:57:41;10.30;99.90
9939;DHT22;5008;50.656;7.188;2022-11-25T11:00:31;10.30;99.90
9939;DHT22;5008;50.656;7.188;2022-11-25T11:03:12;10.40;99.90
9939;DHT22;5008;50.656;7.188;2022-11-25T11:05:44;10.50;99.90
9939;DHT22;5008;50.656;7.188;2022-11-25T11:08:20;10.60;99.90
9939;DHT22;5008;50.656;7.188;2022-11-25T11:11:08;10.70;99.90
9939;DHT22;5008;50.656;7.188;2022-11-25T11:13:36;11.10;99.90
9939;DHT22;5008;50.656;7.188;2022-11-25T11:16:03;11.30;99.90
9939;DHT22;5008;50.656;7.188;2022-11-25T11:18:47;11.30;99.90
9939;DHT22;5008;50.656;7.188;2022-11-25T11:21:22;11.40;99.90
9939;DHT22;5008;50.656;7.188;2022-11-25T11:23:50;11.60;99.90
9939;DHT22;5008;50.656;7.188;2022-11-25T11:26:23;11.70;99.90
9939;DHT22;5008;50.656;7.188;2022-11-25T11:28:58;12.00;99.90
9939;DHT22;5008;50.656;7.188;2022-11-25T11:31:28;12.10;99.90
9939;DHT22;5008;50.656;7.188;2022-11-25T11:34:04;12.10;99.90
9939;DHT22;5008;50.656;7.188;2022-11-25T11:36:47;12.10;99.90
9939;DHT22;5008;50.656;7.188;2022-11-25T11:39:27;11.90;99.90
9939;DHT22;5008;50.656;7.188;2022-11-25T11:42:08;11.90;99.90
9939;DHT22;5008;50.656;7.188;2022-11-25T11:44:44;11.90;99.90
9939;DHT22;5008;50.656;7.188;2022-11-25T11:47:21;12.10;99.90
9939;DHT22;5008;50.656;7.188;2022-11-25T11:50:02;12.20;99.90
9939;DHT22;5008;50.656;7.188;2022-11-25T11:52:43;12.20;99.90
9939;DHT22;5008;50.656;7.188;2022-11-25T11:55:22;12.10;99.90
9939;DHT22;5008;50.656;7.188;2022-11-25T11:58:01;12.20;99.90
9939;DHT22;5008;50.656;7.188;2022-11-25T12:00:31;12.60;99.90
9939;DHT22;5008;50.656;7.188;2022-11-25T12:03:04;12.90;99.90
9939;DHT22;5008;50.656;7.188;2022-11-25T12:05:40;12.80;99.90
9939;DHT22;5008;50.656;7.188;2022-11-25T12:08:11;12.80;99.90
9939;DHT22;5008;50.656;7.188;2022-11-25T12:10:42;12.90;99.90
9939;DHT22;5008;50.656;7.188;2022-11-25T12:13:18;13.10;99.90
9939;DHT22;5008;50.656;7.188;2022-11-25T12:15:50;13.10;99.90
9939;DHT22;5008;50.656;7.188;2022-11-25T12:18:29;13.10;99.90
9939;DHT22;5008;50.656;7.188;2022-11-25T12:21:01;13.50;99.90
9939;DHT22;5008;50.656;7.188;2022-11-25T12:23:40;13.90;99.90
9939;DHT22;5008;50.656;7.188;2022-11-25T12:26:11;14.30;99.90
9939;DHT22;5008;50.656;7.188;2022-11-25T12:29:07;14.60;99.90
9939;DHT22;5008;50.656;7.188;2022-11-25T12:31:37;14.90;99.90
9939;DHT22;5008;50.656;7.188;2022-11-25T12:34:08;14.80;99.90
9939;DHT22;5008;50.656;7.188;2022-11-25T12:36:40;14.60;99.90
9939;DHT22;5008;50.656;7.188;2022-11-25T12:39:17;14.30;99.90
9939;DHT22;5008;50.656;7.188;2022-11-25T12:41:49;13.80;99.90
9939;DHT22;5008;50.656;7.188;2022-11-25T12:44:20;13.40;99.90
9939;DHT22;5008;50.656;7.188;2022-11-25T12:46:49;13.20;99.90
9939;DHT22;5008;50.656;7.188;2022-11-25T12:49:19;13.10;99.90
9939;DHT22;5008;50.656;7.188;2022-11-25T12:55:08;12.80;99.90
9939;DHT22;5008;50.656;7.188;2022-11-25T12:58:03;12.70;99.90
9939;DHT22;5008;50.656;7.188;2022-11-25T13:03:38;12.60;99.90
9939;DHT22;5008;50.656;7.188;2022-11-25T13:06:25;12.50;99.90
9939;DHT22;5008;50.656;7.188;2022-11-25T13:09:01;12.50;99.90
9939;DHT22;5008;50.656;7.188;2022-11-25T13:11:52;12.50;99.90
9939;DHT22;5008;50.656;7.188;2022-11-25T13:14:25;12.50;99.90
9939;DHT22;5008;50.656;7.188;2022-11-25T13:16:54;12.50;99.90
9939;DHT22;5008;50.656;7.188;2022-11-25T13:19:22;12.50;99.90
9939;DHT22;5008;50.656;7.188;2022-11-25T13:21:56;12.50;99.90
9939;DHT22;5008;50.656;7.188;2022-11-25T13:24:37;12.40;99.90
9939;DHT22;5008;50.656;7.188;2022-11-25T13:27:05;12.40;99.90
9939;DHT22;5008;50.656;7.188;2022-11-25T13:29:52;12.40;99.90
9939;DHT22;5008;50.656;7.188;2022-11-25T13:32:29;12.50;99.90
9939;DHT22;5008;50.656;7.188;2022-11-25T13:38:33;12.50;99.90
9939;DHT22;5008;50.656;7.188;2022-11-25T13:41:19;12.60;99.90
9939;DHT22;5008;50.656;7.188;2022-11-25T13:44:02;12.60;99.90
9939;DHT22;5008;50.656;7.188;2022-11-25T13:46:37;13.60;99.90
9939;DHT22;5008;50.656;7.188;2022-11-25T13:52:32;14.10;99.90
9939;DHT22;5008;50.656;7.188;2022-11-25T13:55:04;14.10;99.90
9939;DHT22;5008;50.656;7.188;2022-11-25T13:57:34;14.20;99.90
9939;DHT22;5008;50.656;7.188;2022-11-25T14:00:06;14.20;99.90
9939;DHT22;5008;50.656;7.188;2022-11-25T14:02:45;13.90;99.90
9939;DHT22;5008;50.656;7.188;2022-11-25T14:05:37;13.70;99.90
9939;DHT22;5008;50.656;7.188;2022-11-25T14:08:35;13.60;99.90
9939;DHT22;5008;50.656;7.188;2022-11-25T14:11:36;13.40;99.90
9939;DHT22;5008;50.656;7.188;2022-11-25T14:14:28;13.30;99.90
9939;DHT22;5008;50.656;7.188;2022-11-25T14:17:13;13.10;99.90
9939;DHT22;5008;50.656;7.188;2022-11-25T14:19:58;13.10;99.90
9939;DHT22;5008;50.656;7.188;2022-11-25T14:22:46;12.80;99.90
9939;DHT22;5008;50.656;7.188;2022-11-25T14:25:22;12.80;99.90
9939;DHT22;5008;50.656;7.188;2022-11-25T14:28:06;12.60;99.90
9939;DHT22;5008;50.656;7.188;2022-11-25T14:30:42;12.60;99.90
9939;DHT22;5008;50.656;7.188;2022-11-25T14:33:25;12.60;99.90
9939;DHT22;5008;50.656;7.188;2022-11-25T14:36:00;12.50;99.90
9939;DHT22;5008;50.656;7.188;2022-11-25T14:38:36;12.40;99.90
9939;DHT22;5008;50.656;7.188;2022-11-25T14:41:07;12.30;99.90
9939;DHT22;5008;50.656;7.188;2022-11-25T14:43:38;12.30;99.90
9939;DHT22;5008;50.656;7.188;2022-11-25T14:46:12;12.20;99.90
9939;DHT22;5008;50.656;7.188;2022-11-25T14:48:40;12.20;99.90
9939;DHT22;5008;50.656;7.188;2022-11-25T14:51:09;12.30;99.90
9939;DHT22;5008;50.656;7.188;2022-11-25T14:53:39;12.10;99.90
9939;DHT22;5008;50.656;7.188;2022-11-25T14:56:07;12.10;99.90
9939;DHT22;5008;50.656;7.188;2022-11-25T14:58:38;12.00;99.90
9939;DHT22;5008;50.656;7.188;2022-11-25T15:01:18;11.90;99.90
9939;DHT22;5008;50.656;7.188;2022-11-25T15:03:48;11.80;99.90
9939;DHT22;5008;50.656;7.188;2022-11-25T15:06:15;11.70;99.90
9939;DHT22;5008;50.656;7.188;2022-11-25T15:08:45;11.60;99.90
9939;DHT22;5008;50.656;7.188;2022-11-25T15:11:21;11.50;99.90
9939;DHT22;5008;50.656;7.188;2022-11-25T15:13:51;11.40;99.90
9939;DHT22;5008;50.656;7.188;2022-11-25T15:16:22;11.20;99.90
9939;DHT22;5008;50.656;7.188;2022-11-25T15:19:03;11.10;99.90
9939;DHT22;5008;50.656;7.188;2022-11-25T15:21:33;11.10;99.90
9939;DHT22;5008;50.656;7.188;2022-11-25T15:24:00;11.00;99.90
9939;DHT22;5008;50.656;7.188;2022-11-25T15:26:31;10.90;99.90
9939;DHT22;5008;50.656;7.188;2022-11-25T15:29:00;10.80;99.90
9939;DHT22;5008;50.656;7.188;2022-11-25T15:31:30;10.70;99.90
9939;DHT22;5008;50.656;7.188;2022-11-25T15:34:02;10.60;99.90
9939;DHT22;5008;50.656;7.188;2022-11-25T15:36:30;10.50;99.90
9939;DHT22;5008;50.656;7.188;2022-11-25T15:39:13;10.40;99.90
9939;DHT22;5008;50.656;7.188;2022-11-25T15:41:42;10.30;99.90
9939;DHT22;5008;50.656;7.188;2022-11-25T15:44:18;10.20;99.90
9939;DHT22;5008;50.656;7.188;2022-11-25T15:46:56;10.10;99.90
9939;DHT22;5008;50.656;7.188;2022-11-25T15:49:27;10.00;99.90
9939;DHT22;5008;50.656;7.188;2022-11-25T15:51:57;9.90;99.90
9939;DHT22;5008;50.656;7.188;2022-11-25T15:54:27;9.80;99.90
9939;DHT22;5008;50.656;7.188;2022-11-25T15:56:57;9.70;99.90
9939;DHT22;5008;50.656;7.188;2022-11-25T15:59:48;9.70;99.90
9939;DHT22;5008;50.656;7.188;2022-11-25T16:02:33;9.70;99.90
9939;DHT22;5008;50.656;7.188;2022-11-25T16:05:29;9.70;99.90
9939;DHT22;5008;50.656;7.188;2022-11-25T16:08:15;9.60;99.90
9939;DHT22;5008;50.656;7.188;2022-11-25T16:10:53;9.60;99.90
9939;DHT22;5008;50.656;7.188;2022-11-25T16:13:31;9.50;99.90
9939;DHT22;5008;50.656;7.188;2022-11-25T16:16:09;9.50;99.90
9939;DHT22;5008;50.656;7.188;2022-11-25T16:18:39;9.50;99.90
9939;DHT22;5008;50.656;7.188;2022-11-25T16:21:10;9.50;99.90
9939;DHT22;5008;50.656;7.188;2022-11-25T16:23:41;9.50;99.90
9939;DHT22;5008;50.656;7.188;2022-11-25T16:26:15;9.60;99.90
9939;DHT22;5008;50.656;7.188;2022-11-25T16:28:50;9.50;99.90
9939;DHT22;5008;50.656;7.188;2022-11-25T16:31:17;9.50;99.90
9939;DHT22;5008;50.656;7.188;2022-11-25T16:33:44;9.40;99.90
9939;DHT22;5008;50.656;7.188;2022-11-25T16:36:12;9.50;99.90
9939;DHT22;5008;50.656;7.188;2022-11-25T16:38:39;9.50;99.90
9939;DHT22;5008;50.656;7.188;2022-11-25T16:41:09;9.50;99.90
9939;DHT22;5008;50.656;7.188;2022-11-25T16:43:42;9.40;99.90
9939;DHT22;5008;50.656;7.188;2022-11-25T16:46:14;9.40;99.90
9939;DHT22;5008;50.656;7.188;2022-11-25T16:48:42;9.40;99.90
9939;DHT22;5008;50.656;7.188;2022-11-25T16:51:15;9.50;99.90
9939;DHT22;5008;50.656;7.188;2022-11-25T16:53:42;9.60;99.90
9939;DHT22;5008;50.656;7.188;2022-11-25T16:56:12;9.50;99.90
9939;DHT22;5008;50.656;7.188;2022-11-25T16:58:40;9.50;99.90
9939;DHT22;5008;50.656;7.188;2022-11-25T17:01:11;9.50;99.90
9939;DHT22;5008;50.656;7.188;2022-11-25T17:03:39;9.50;99.90
9939;DHT22;5008;50.656;7.188;2022-11-25T17:06:12;9.40;99.90
9939;DHT22;5008;50.656;7.188;2022-11-25T17:08:41;9.50;99.90
9939;DHT22;5008;50.656;7.188;2022-11-25T17:11:12;9.50;99.90
9939;DHT22;5008;50.656;7.188;2022-11-25T17:13:43;9.40;99.90
9939;DHT22;5008;50.656;7.188;2022-11-25T17:16:14;9.40;99.90
9939;DHT22;5008;50.656;7.188;2022-11-25T17:18:43;9.40;99.90
9939;DHT22;5008;50.656;7.188;2022-11-25T17:21:11;9.30;99.90
9939;DHT22;5008;50.656;7.188;2022-11-25T17:23:40;9.30;99.90
9939;DHT22;5008;50.656;7.188;2022-11-25T17:26:13;9.30;99.90
9939;DHT22;5008;50.656;7.188;2022-11-25T17:28:53;9.30;99.90
9939;DHT22;5008;50.656;7.188;2022-11-25T17:31:20;9.20;99.90
9939;DHT22;5008;50.656;7.188;2022-11-25T17:33:50;9.20;99.90
9939;DHT22;5008;50.656;7.188;2022-11-25T21:05:54;7.60;99.90
9939;DHT22;5008;50.656;7.188;2022-11-25T21:08:23;7.60;99.90
9939;DHT22;5008;50.656;7.188;2022-11-25T21:10:52;7.50;99.90
9939;DHT22;5008;50.656;7.188;2022-11-25T21:13:21;7.40;99.90
9939;DHT22;5008;50.656;7.188;2022-11-25T21:15:51;7.40;99.90
9939;DHT22;5008;50.656;7.188;2022-11-25T21:18:18;7.40;99.90
9939;DHT22;5008;50.656;7.188;2022-11-25T21:20:47;7.40;99.90
9939;DHT22;5008;50.656;7.188;2022-11-25T21:23:19;7.40;99.90
9939;DHT22;5008;50.656;7.188;2022-11-25T21:25:46;7.30;99.90
9939;DHT22;5008;50.656;7.188;2022-11-25T21:28:16;7.20;99.90
9939;DHT22;5008;50.656;7.188;2022-11-25T21:30:43;7.20;99.90
9939;DHT22;5008;50.656;7.188;2022-11-25T21:33:12;7.20;99.90
9939;DHT22;5008;50.656;7.188;2022-11-25T21:35:47;7.10;99.90
9939;DHT22;5008;50.656;7.188;2022-11-25T21:38:20;7.10;99.90
9939;DHT22;5008;50.656;7.188;2022-11-25T21:40:50;7.10;99.90
9939;DHT22;5008;50.656;7.188;2022-11-25T21:43:20;7.00;99.90
9939;DHT22;5008;50.656;7.188;2022-11-25T21:45:52;6.90;99.90
9939;DHT22;5008;50.656;7.188;2022-11-25T21:48:19;6.90;99.90
9939;DHT22;5008;50.656;7.188;2022-11-25T21:50:47;6.90;99.90
9939;DHT22;5008;50.656;7.188;2022-11-25T21:53:15;6.80;99.90
9939;DHT22;5008;50.656;7.188;2022-11-25T21:55:43;6.70;99.90
9939;DHT22;5008;50.656;7.188;2022-11-25T21:58:13;6.70;99.90
